Time;durP1;ratioP1;P1;durP2;ratioP2;P2;SDS_P1;SDS_P2;PMS_P1;PMS_P2;Temp;Humidity;BMP_temperature;BMP_pressure;BME280_temperature;BME280_humidity;BME280_pressure;Samples;Min_cycle;Max_cycle;Signal;HPM_P1;HPM_P2
2021/04/17 00:00:31;;;;;;;2.90;1.40;;;8.30;86.90;;;;;;5072529;28;20897;-48
2021/04/17 00:02:57;;;;;;;2.20;1.67;;;7.80;86.20;;;;;;5071686;28;20447;-48
2021/04/17 00:05:24;;;;;;;4.10;2.07;;;8.20;87.60;;;;;;5072606;28;20427;-48
2021/04/17 00:07:51;;;;;;;3.27;1.67;;;8.10;86.90;;;;;;5072437;28;20788;-49
2021/04/17 00:10:17;;;;;;;8.13;1.90;;;8.00;87.70;;;;;;5071264;28;20441;-48
2021/04/17 00:12:44;;;;;;;4.40;2.07;;;7.90;87.10;;;;;;5071743;28;20483;-48
2021/04/17 00:15:11;;;;;;;2.00;1.67;;;8.20;87.00;;;;;;5072301;28;20932;-49
2021/04/17 00:17:37;;;;;;;4.97;2.20;;;8.00;86.90;;;;;;5072342;28;20597;-48
2021/04/17 00:20:05;;;;;;;7.90;2.00;;;7.90;87.10;;;;;;5071953;28;20952;-48
2021/04/17 00:22:31;;;;;;;4.17;1.67;;;7.80;87.60;;;;;;5071702;28;20766;-48
2021/04/17 00:24:57;;;;;;;3.93;2.13;;;7.90;87.60;;;;;;5071997;28;20431;-48
2021/04/17 00:27:24;;;;;;;6.33;2.10;;;8.20;88.20;;;;;;5071966;28;20460;-48
2021/04/17 00:29:51;;;;;;;3.43;1.87;;;8.00;87.20;;;;;;5071682;28;20495;-48
2021/04/17 00:32:17;;;;;;;6.23;2.10;;;8.20;87.80;;;;;;5070259;28;20476;-47
2021/04/17 00:34:43;;;;;;;4.40;2.07;;;8.10;88.40;;;;;;5071492;28;20498;-47
2021/04/17 00:37:09;;;;;;;4.33;2.07;;;8.20;88.70;;;;;;5071927;28;20459;-48
2021/04/17 00:39:36;;;;;;;3.87;1.93;;;8.10;88.70;;;;;;5072191;28;20439;-48
2021/04/17 00:42:03;;;;;;;7.20;2.20;;;8.20;88.70;;;;;;5074729;28;20467;-48
2021/04/17 00:44:29;;;;;;;3.90;2.00;;;7.80;88.20;;;;;;5071586;28;20467;-48
2021/04/17 00:46:56;;;;;;;5.97;2.07;;;8.10;89.00;;;;;;5072411;28;20455;-49
2021/04/17 00:49:23;;;;;;;5.50;2.07;;;8.20;88.40;;;;;;5072106;28;20488;-48
2021/04/17 00:51:49;;;;;;;3.73;1.50;;;8.20;88.80;;;;;;5071899;28;20983;-47
2021/04/17 00:54:16;;;;;;;4.17;2.20;;;8.00;89.10;;;;;;5070120;28;20459;-47
2021/04/17 00:56:43;;;;;;;2.07;1.40;;;8.30;89.80;;;;;;5071775;28;20948;-48
2021/04/17 00:59:09;;;;;;;4.27;2.07;;;7.90;89.30;;;;;;5071807;28;20436;-48
2021/04/17 01:01:35;;;;;;;3.27;2.23;;;8.10;90.00;;;;;;5072277;28;20509;-48
2021/04/17 01:04:08;;;;;;;5.50;2.60;;;7.80;89.40;;;;;;5071355;28;20453;-48
2021/04/17 01:06:39;;;;;;;5.80;2.40;;;7.90;90.20;;;;;;5072016;28;20437;-49
2021/04/17 01:09:10;;;;;;;2.67;1.77;;;8.30;90.30;;;;;;5071872;28;20828;-48
2021/04/17 01:11:40;;;;;;;3.97;2.10;;;8.00;90.30;;;;;;5071836;28;20410;-48
2021/04/17 01:14:08;;;;;;;2.87;1.80;;;7.90;89.60;;;;;;5071371;28;20452;-48
2021/04/17 01:16:35;;;;;;;3.83;2.20;;;7.90;89.80;;;;;;5072056;28;20952;-48
2021/04/17 01:19:04;;;;;;;4.17;1.87;;;7.40;89.80;;;;;;5072162;28;20856;-48
2021/04/17 01:21:32;;;;;;;3.87;2.30;;;7.80;90.30;;;;;;5072867;28;20940;-48
2021/04/17 01:24:03;;;;;;;3.53;2.10;;;7.50;89.80;;;;;;5074785;28;20962;-48
2021/04/17 01:26:31;;;;;;;5.80;2.47;;;8.20;90.70;;;;;;5075173;28;20810;-48
2021/04/17 01:28:59;;;;;;;4.30;1.90;;;7.80;90.30;;;;;;5075429;28;20841;-48
2021/04/17 01:31:28;;;;;;;5.50;1.93;;;8.10;91.00;;;;;;5075066;28;20935;-48
2021/04/17 01:33:57;;;;;;;2.97;1.80;;;8.00;90.90;;;;;;5074643;28;20454;-48
2021/04/17 01:36:25;;;;;;;5.77;2.50;;;8.10;91.40;;;;;;5075100;28;20431;-48
2021/04/17 01:38:55;;;;;;;2.33;1.73;;;7.70;91.40;;;;;;5074899;28;20419;-48
2021/04/17 01:41:25;;;;;;;2.40;1.60;;;7.70;91.50;;;;;;5075248;28;20428;-48
2021/04/17 01:43:55;;;;;;;3.97;1.50;;;7.80;91.80;;;;;;5074571;28;20508;-48
2021/04/17 01:46:24;;;;;;;3.53;1.73;;;7.90;92.00;;;;;;5073440;28;20455;-48
2021/04/17 01:48:54;;;;;;;3.77;1.50;;;7.80;92.30;;;;;;5074616;28;20438;-48
2021/04/17 01:51:20;;;;;;;3.23;1.47;;;7.80;92.80;;;;;;5074770;28;20523;-48
2021/04/17 01:53:50;;;;;;;2.87;1.60;;;7.90;93.00;;;;;;5074351;28;20529;-48
2021/04/17 01:56:19;;;;;;;1.90;1.40;;;7.70;92.90;;;;;;5074502;28;20397;-48
2021/04/17 01:58:46;;;;;;;5.17;2.40;;;7.80;93.60;;;;;;5074561;28;20598;-47
2021/04/17 02:01:14;;;;;;;2.97;1.97;;;7.70;93.60;;;;;;5074483;28;20607;-48
2021/04/17 02:03:41;;;;;;;2.17;1.60;;;7.80;94.10;;;;;;5074135;28;20484;-48
2021/04/17 02:06:07;;;;;;;3.40;1.73;;;7.80;94.00;;;;;;5074371;28;20498;-48
2021/04/17 02:08:35;;;;;;;2.40;1.60;;;8.00;94.20;;;;;;5074460;28;20431;-48
2021/04/17 02:11:02;;;;;;;2.57;1.80;;;8.00;94.90;;;;;;5074259;28;20514;-48
2021/04/17 02:13:28;;;;;;;5.67;2.00;;;7.80;94.60;;;;;;5074195;28;20575;-48
2021/04/17 02:15:58;;;;;;;3.50;1.57;;;7.40;94.80;;;;;;5074360;28;20403;-48
2021/04/17 02:18:29;;;;;;;4.70;1.87;;;7.80;95.00;;;;;;5073992;28;20527;-49
2021/04/17 02:21:01;;;;;;;3.53;2.13;;;7.70;94.80;;;;;;5074038;28;20458;-49
2021/04/17 02:23:29;;;;;;;4.10;1.63;;;7.70;95.00;;;;;;5073726;28;20455;-48
2021/04/17 02:25:56;;;;;;;5.03;1.90;;;7.70;95.30;;;;;;5074800;28;20955;-48
2021/04/17 02:28:23;;;;;;;4.60;2.70;;;7.80;95.00;;;;;;5074211;28;20472;-48
2021/04/17 02:30:49;;;;;;;3.17;1.80;;;7.70;95.00;;;;;;5073905;28;20489;-49
2021/04/17 02:33:15;;;;;;;2.90;1.57;;;7.90;95.40;;;;;;5072458;28;20559;-49
2021/04/17 02:35:43;;;;;;;3.20;1.60;;;8.00;95.30;;;;;;5073136;28;20432;-49
2021/04/17 02:38:10;;;;;;;4.30;1.77;;;8.00;95.60;;;;;;5073747;28;20443;-48
2021/04/17 02:40:36;;;;;;;4.03;1.90;;;7.80;95.40;;;;;;5074256;28;20467;-49
2021/04/17 02:43:03;;;;;;;3.60;2.07;;;7.70;94.90;;;;;;5073609;28;20801;-49
2021/04/17 02:45:29;;;;;;;5.33;1.80;;;8.10;94.80;;;;;;5073591;28;20410;-49
2021/04/17 02:47:56;;;;;;;3.67;1.87;;;8.10;95.00;;;;;;5073726;28;20431;-49
2021/04/17 02:50:22;;;;;;;4.73;1.60;;;7.90;94.80;;;;;;5073801;28;20427;-49
2021/04/17 02:52:50;;;;;;;5.00;1.80;;;7.90;94.40;;;;;;5073191;28;20514;-49
2021/04/17 02:55:16;;;;;;;4.70;2.20;;;7.80;94.50;;;;;;5073441;28;20932;-49
2021/04/17 02:57:43;;;;;;;3.30;2.03;;;8.00;94.40;;;;;;5073352;28;20441;-49
2021/04/17 03:00:12;;;;;;;4.07;1.93;;;7.20;93.90;;;;;;5073144;28;21059;-49
2021/04/17 03:02:38;;;;;;;2.33;1.77;;;7.70;94.20;;;;;;5072798;28;20803;-49
2021/04/17 03:05:06;;;;;;;5.60;2.40;;;7.90;93.90;;;;;;5073018;28;20792;-49
2021/04/17 03:07:32;;;;;;;6.43;2.40;;;7.70;94.10;;;;;;5072920;28;20435;-49
2021/04/17 03:09:59;;;;;;;3.30;2.07;;;7.30;93.60;;;;;;5073234;28;20431;-48
2021/04/17 03:12:25;;;;;;;2.97;1.67;;;7.50;93.50;;;;;;5072357;28;20478;-49
2021/04/17 03:14:51;;;;;;;9.30;2.47;;;7.90;93.50;;;;;;5073383;28;20436;-48
2021/04/17 03:17:18;;;;;;;4.30;2.00;;;7.80;93.30;;;;;;5071828;28;20463;-49
2021/04/17 03:19:44;;;;;;;10.73;2.40;;;7.80;93.10;;;;;;5072890;28;20791;-48
2021/04/17 03:22:10;;;;;;;6.60;1.73;;;7.70;93.30;;;;;;5072734;28;20509;-48
2021/04/17 03:24:37;;;;;;;4.40;2.17;;;7.50;92.50;;;;;;5072537;28;20924;-48
2021/04/17 03:27:05;;;;;;;3.37;1.93;;;7.70;92.60;;;;;;5073178;28;20438;-48
2021/04/17 03:29:32;;;;;;;5.27;2.00;;;8.20;92.90;;;;;;5072972;28;20760;-49
2021/04/17 03:31:58;;;;;;;3.70;1.63;;;8.10;93.00;;;;;;5072825;28;20999;-48
2021/04/17 03:34:25;;;;;;;4.47;2.27;;;7.50;92.20;;;;;;5072507;28;20431;-49
2021/04/17 03:36:51;;;;;;;5.23;2.00;;;7.30;92.30;;;;;;5072722;28;20423;-48
2021/04/17 03:39:17;;;;;;;4.57;2.70;;;7.70;92.40;;;;;;5072896;28;20402;-49
2021/04/17 03:41:44;;;;;;;2.83;1.83;;;7.50;92.40;;;;;;5072618;28;20570;-48
2021/04/17 03:44:11;;;;;;;7.57;2.07;;;7.80;92.30;;;;;;5071082;28;20929;-49
2021/04/17 03:46:37;;;;;;;3.20;1.73;;;7.70;92.30;;;;;;5072943;28;20481;-48
2021/04/17 03:49:04;;;;;;;7.27;2.17;;;7.50;92.50;;;;;;5072537;28;20435;-49
2021/04/17 03:51:30;;;;;;;3.10;1.70;;;7.70;92.40;;;;;;5073174;28;20436;-48
2021/04/17 03:53:57;;;;;;;3.23;1.60;;;7.40;92.30;;;;;;5072035;28;20491;-48
2021/04/17 03:56:24;;;;;;;7.53;1.90;;;7.80;92.50;;;;;;5072088;28;20437;-48
2021/04/17 03:58:50;;;;;;;5.10;1.83;;;7.80;92.80;;;;;;5071145;28;20452;-48
2021/04/17 04:01:17;;;;;;;1.90;1.43;;;7.80;92.50;;;;;;5072777;28;20509;-48
2021/04/17 04:03:43;;;;;;;5.60;1.97;;;7.60;92.50;;;;;;5071707;28;20508;-49
2021/04/17 04:06:10;;;;;;;3.40;1.43;;;7.80;92.90;;;;;;5072209;28;20836;-49
2021/04/17 04:08:36;;;;;;;3.63;1.80;;;7.60;92.50;;;;;;5070564;28;20452;-50
2021/04/17 04:11:02;;;;;;;3.77;1.83;;;7.40;92.70;;;;;;5071812;28;20439;-47
2021/04/17 04:13:29;;;;;;;8.17;2.67;;;7.60;92.50;;;;;;5071572;28;20483;-48
2021/04/17 04:15:55;;;;;;;4.60;1.70;;;7.80;92.70;;;;;;5072379;28;20423;-49
2021/04/17 04:18:22;;;;;;;5.07;2.40;;;7.80;93.00;;;;;;5072386;28;20439;-49
2021/04/17 04:20:48;;;;;;;4.00;1.80;;;7.80;92.70;;;;;;5071705;28;20789;-49
2021/04/17 04:23:15;;;;;;;4.43;1.70;;;7.70;93.10;;;;;;5071279;28;20482;-48
2021/04/17 04:25:41;;;;;;;2.93;1.50;;;7.80;93.20;;;;;;5072066;28;20449;-48
2021/04/17 04:28:07;;;;;;;4.07;1.80;;;7.70;93.00;;;;;;5071702;28;20441;-48
2021/04/17 04:30:34;;;;;;;7.63;2.07;;;7.80;93.30;;;;;;5071609;28;20967;-48
2021/04/17 04:33:00;;;;;;;2.83;1.80;;;7.80;93.20;;;;;;5071528;28;20551;-48
2021/04/17 04:35:27;;;;;;;3.13;1.80;;;7.50;93.20;;;;;;5070919;28;20436;-49
2021/04/17 04:37:54;;;;;;;4.10;1.63;;;7.60;93.00;;;;;;5071867;28;20439;-49
2021/04/17 04:40:20;;;;;;;2.50;1.53;;;7.50;92.90;;;;;;5071999;28;20457;-48
2021/04/17 04:42:46;;;;;;;4.10;1.77;;;7.70;92.90;;;;;;5071925;28;20443;-49
2021/04/17 04:45:13;;;;;;;4.03;1.50;;;7.70;92.90;;;;;;5072732;28;20424;-49
2021/04/17 04:47:39;;;;;;;5.73;1.63;;;7.60;92.80;;;;;;5072787;28;20906;-50
2021/04/17 04:50:08;;;;;;;3.73;1.93;;;7.70;92.90;;;;;;5072560;28;20851;-50
2021/04/17 04:52:35;;;;;;;3.03;1.50;;;7.60;92.80;;;;;;5072062;28;20971;-49
2021/04/17 04:55:02;;;;;;;2.97;1.50;;;7.60;93.00;;;;;;5071253;28;20522;-49
2021/04/17 04:57:28;;;;;;;3.93;1.80;;;7.90;93.10;;;;;;5074124;28;20484;-48
2021/04/17 04:59:55;;;;;;;5.30;1.80;;;7.70;93.20;;;;;;5074958;28;20492;-48
2021/04/17 05:02:21;;;;;;;3.50;1.90;;;7.60;93.10;;;;;;5074557;28;20479;-49
2021/04/17 05:04:47;;;;;;;2.67;1.73;;;7.90;93.00;;;;;;5074904;28;20847;-49
2021/04/17 05:07:13;;;;;;;3.90;1.60;;;7.60;93.10;;;;;;5074676;28;20426;-49
2021/04/17 05:09:40;;;;;;;3.67;2.03;;;7.60;93.00;;;;;;5074786;28;20943;-49
2021/04/17 05:12:07;;;;;;;3.87;1.80;;;7.60;93.30;;;;;;5074770;28;20460;-49
2021/04/17 05:14:35;;;;;;;2.73;1.47;;;7.60;93.40;;;;;;5073047;28;20452;-48
2021/04/17 05:17:02;;;;;;;2.70;1.30;;;7.50;93.40;;;;;;5074604;28;20409;-49
2021/04/17 05:19:28;;;;;;;3.60;2.13;;;7.50;93.40;;;;;;5074500;28;20434;-49
2021/04/17 05:21:54;;;;;;;4.53;1.83;;;7.80;93.40;;;;;;5074417;28;20431;-48
2021/04/17 05:24:20;;;;;;;3.33;1.80;;;7.60;93.60;;;;;;5072960;28;20500;-48
2021/04/17 05:26:47;;;;;;;5.03;2.00;;;7.70;93.40;;;;;;5073324;28;20458;-48
2021/04/17 05:29:14;;;;;;;8.20;2.10;;;7.70;93.30;;;;;;5074558;28;20454;-49
2021/04/17 05:31:40;;;;;;;5.47;1.60;;;7.90;93.70;;;;;;5073223;28;20498;-47
2021/04/17 05:34:06;;;;;;;5.50;1.60;;;7.80;93.80;;;;;;5074158;28;20483;-49
2021/04/17 05:36:34;;;;;;;2.80;1.80;;;7.60;93.60;;;;;;5074330;28;20468;-49
2021/04/17 05:39:00;;;;;;;3.80;1.80;;;7.80;93.70;;;;;;5074325;28;20951;-49
2021/04/17 05:41:27;;;;;;;5.23;1.60;;;7.40;93.60;;;;;;5074256;28;20935;-48
2021/04/17 05:43:54;;;;;;;5.30;2.17;;;7.80;93.90;;;;;;5072753;28;20459;-48
2021/04/17 05:46:20;;;;;;;2.30;1.63;;;7.40;94.00;;;;;;5073147;28;20949;-49
2021/04/17 05:48:47;;;;;;;3.40;1.30;;;7.50;94.00;;;;;;5074018;28;20453;-48
2021/04/17 05:51:13;;;;;;;3.10;1.67;;;7.90;94.20;;;;;;5074103;28;20400;-49
2021/04/17 05:53:39;;;;;;;7.37;2.37;;;7.50;94.00;;;;;;5073559;28;20502;-49
2021/04/17 05:56:08;;;;;;;3.03;1.43;;;7.70;94.00;;;;;;5073684;28;20431;-49
2021/04/17 05:58:34;;;;;;;3.70;1.80;;;7.90;94.20;;;;;;5073869;28;20459;-49
2021/04/17 06:01:01;;;;;;;3.07;1.90;;;7.90;94.00;;;;;;5073734;28;20485;-48
2021/04/17 06:03:29;;;;;;;9.27;2.00;;;7.60;93.70;;;;;;5073558;28;20451;-49
2021/04/17 06:05:55;;;;;;;1.93;1.30;;;7.70;93.90;;;;;;5073365;28;20424;-48
2021/04/17 06:08:22;;;;;;;5.93;2.03;;;8.00;94.20;;;;;;5073587;28;20491;-48
2021/04/17 06:10:48;;;;;;;2.73;1.57;;;7.60;93.70;;;;;;5074090;28;20939;-48
2021/04/17 06:13:14;;;;;;;5.43;1.57;;;7.60;94.10;;;;;;5071956;28;20790;-48
2021/04/17 06:15:40;;;;;;;4.70;2.27;;;7.70;94.20;;;;;;5073595;28;20429;-48
2021/04/17 06:18:07;;;;;;;3.13;2.00;;;7.60;93.90;;;;;;5073450;28;20435;-49
2021/04/17 06:20:34;;;;;;;4.70;2.10;;;7.70;94.00;;;;;;5073613;28;20447;-47
2021/04/17 06:23:00;;;;;;;8.97;2.10;;;7.60;94.40;;;;;;5073034;28;20456;-48
2021/04/17 06:25:26;;;;;;;3.57;1.73;;;7.50;94.20;;;;;;5073327;28;20811;-49
2021/04/17 06:27:53;;;;;;;7.13;1.93;;;7.70;94.30;;;;;;5074086;28;20717;-49
2021/04/17 06:30:20;;;;;;;4.53;1.90;;;7.80;94.40;;;;;;5072047;28;20508;-49
2021/04/17 06:32:46;;;;;;;3.37;1.87;;;7.90;94.60;;;;;;5072923;28;20792;-50
2021/04/17 06:35:14;;;;;;;7.90;2.33;;;7.70;94.60;;;;;;5072935;28;20967;-49
2021/04/17 06:37:40;;;;;;;5.70;2.73;;;7.70;94.80;;;;;;5073611;28;20435;-49
2021/04/17 06:40:07;;;;;;;2.90;1.67;;;7.70;95.20;;;;;;5073517;28;20477;-49
2021/04/17 06:42:36;;;;;;;5.90;2.10;;;7.60;95.40;;;;;;5073090;28;20979;-48
2021/04/17 06:45:03;;;;;;;4.07;1.90;;;7.60;94.90;;;;;;5072397;28;20448;-49
2021/04/17 06:47:30;;;;;;;3.73;1.97;;;7.70;95.30;;;;;;5073472;28;20437;-48
2021/04/17 06:49:57;;;;;;;4.50;2.07;;;8.00;95.30;;;;;;5073125;28;20428;-49
2021/04/17 06:52:26;;;;;;;6.50;2.87;;;8.10;95.10;;;;;;5072381;28;20475;-50
2021/04/17 06:54:53;;;;;;;6.07;2.53;;;7.80;95.70;;;;;;5072667;28;20474;-49
2021/04/17 06:57:20;;;;;;;9.57;2.73;;;7.90;95.30;;;;;;5072472;28;20475;-48
2021/04/17 06:59:46;;;;;;;3.93;2.00;;;7.90;95.40;;;;;;5072516;28;20920;-49
2021/04/17 07:02:15;;;;;;;4.60;2.00;;;8.10;95.80;;;;;;5072285;28;20503;-49
2021/04/17 07:04:42;;;;;;;3.33;2.07;;;8.10;95.70;;;;;;5070937;28;20449;-49
2021/04/17 07:07:09;;;;;;;7.33;2.47;;;8.10;95.60;;;;;;5071107;28;20439;-49
2021/04/17 07:09:36;;;;;;;5.17;2.67;;;8.10;95.60;;;;;;5072432;28;20932;-49
2021/04/17 07:12:02;;;;;;;6.07;2.77;;;8.00;95.60;;;;;;5072022;28;20425;-50
2021/04/17 07:14:42;;;;;;;7.00;2.70;;;7.50;95.30;;;;;;5071992;28;20444;-48
2021/04/17 07:17:08;;;;;;;3.20;1.93;;;8.20;95.80;;;;;;5072204;28;20448;-50
2021/04/17 07:19:52;;;;;;;5.50;2.30;;;8.00;95.70;;;;;;5071803;28;20907;-50
2021/04/17 07:22:21;;;;;;;4.83;2.30;;;8.40;95.80;;;;;;5071755;28;20451;-49
2021/04/17 07:24:51;;;;;;;10.60;2.93;;;8.30;95.70;;;;;;5072025;28;20459;-49
2021/04/17 07:27:36;;;;;;;5.83;2.50;;;7.70;95.90;;;;;;5071889;28;20753;-49
2021/04/17 07:30:09;;;;;;;5.60;2.47;;;8.40;96.00;;;;;;5071999;28;20428;-50
2021/04/17 07:32:36;;;;;;;3.50;1.90;;;8.30;96.00;;;;;;5071744;28;20490;-49
2021/04/17 07:35:08;;;;;;;5.50;2.30;;;8.30;95.80;;;;;;5072078;28;20433;-49
2021/04/17 07:37:35;;;;;;;4.10;2.67;;;8.50;96.00;;;;;;5070002;28;20521;-49
2021/04/17 07:40:21;;;;;;;5.20;2.40;;;8.60;96.00;;;;;;5071583;28;20443;-49
2021/04/17 07:42:50;;;;;;;8.70;2.33;;;8.40;96.00;;;;;;5071554;28;20798;-48
2021/04/17 07:45:25;;;;;;;5.23;2.40;;;8.60;96.00;;;;;;5071469;28;20430;-48
2021/04/17 07:47:52;;;;;;;5.03;2.53;;;8.50;96.00;;;;;;5070666;28;20505;-48
2021/04/17 07:50:19;;;;;;;5.10;2.77;;;8.50;96.10;;;;;;5071575;28;20429;-49
2021/04/17 07:52:46;;;;;;;11.70;3.47;;;8.70;96.40;;;;;;5071755;28;20483;-49
2021/04/17 07:55:16;;;;;;;6.40;2.83;;;8.20;96.10;;;;;;5072365;28;20437;-49
2021/04/17 07:57:46;;;;;;;5.80;2.30;;;8.50;95.90;;;;;;5072561;28;20516;-50
2021/04/17 08:00:15;;;;;;;6.30;2.73;;;8.70;96.00;;;;;;5072800;28;20538;-50
2021/04/17 08:02:43;;;;;;;5.57;2.57;;;9.10;95.80;;;;;;5071916;28;20816;-50
2021/04/17 08:05:11;;;;;;;4.40;2.57;;;9.10;95.60;;;;;;5072183;28;20858;-50
2021/04/17 08:07:37;;;;;;;10.90;2.83;;;8.90;95.70;;;;;;5072065;28;20915;-48
2021/04/17 08:10:06;;;;;;;6.57;2.63;;;9.30;95.60;;;;;;5071870;28;20451;-50
2021/04/17 08:12:35;;;;;;;6.63;2.30;;;9.30;95.60;;;;;;5071475;28;20952;-49
2021/04/17 08:15:03;;;;;;;4.10;2.50;;;9.60;95.30;;;;;;5072239;28;20456;-49
2021/04/17 08:17:30;;;;;;;5.93;2.23;;;9.70;95.20;;;;;;5071794;28;20434;-49
2021/04/17 08:19:57;;;;;;;10.23;3.43;;;9.50;94.40;;;;;;5071565;28;20883;-50
2021/04/17 08:22:25;;;;;;;4.20;1.97;;;9.80;94.70;;;;;;5071575;28;20511;-49
2021/04/17 08:24:52;;;;;;;12.43;2.57;;;9.80;94.50;;;;;;5071796;28;20472;-49
2021/04/17 08:27:19;;;;;;;10.33;2.97;;;9.90;94.40;;;;;;5071824;28;20433;-51
2021/04/17 08:29:48;;;;;;;6.50;2.50;;;10.10;94.20;;;;;;5071695;28;20444;-50
2021/04/17 08:32:33;;;;;;;7.00;2.83;;;10.10;94.10;;;;;;5072986;28;20470;-51
2021/04/17 08:35:05;;;;;;;10.23;3.27;;;10.20;93.90;;;;;;5075956;28;20430;-49
2021/04/17 08:37:33;;;;;;;6.83;3.10;;;10.30;93.50;;;;;;5075587;28;20507;-49
2021/04/17 08:40:00;;;;;;;9.03;3.10;;;10.70;93.40;;;;;;5075677;28;20444;-49
2021/04/17 08:42:39;;;;;;;9.53;2.37;;;11.00;93.00;;;;;;5073972;28;20518;-49
2021/04/17 08:45:11;;;;;;;8.63;2.97;;;10.30;92.50;;;;;;5075398;28;20517;-50
2021/04/17 08:47:49;;;;;;;5.80;2.80;;;10.90;92.70;;;;;;5075208;28;20425;-50
2021/04/17 08:50:27;;;;;;;9.20;3.27;;;11.00;92.70;;;;;;5075328;28;20441;-50
2021/04/17 08:52:59;;;;;;;12.10;2.50;;;11.10;92.70;;;;;;5074725;28;20851;-50
2021/04/17 08:55:28;;;;;;;10.43;3.00;;;10.70;92.30;;;;;;5072732;28;20469;-50
2021/04/17 08:58:13;;;;;;;6.50;2.43;;;10.80;92.40;;;;;;5074738;28;20433;-49
2021/04/17 09:00:42;;;;;;;6.97;3.00;;;10.70;92.40;;;;;;5074894;28;20441;-50
2021/04/17 09:03:30;;;;;;;7.80;3.40;;;10.90;92.40;;;;;;5074521;28;20466;-49
2021/04/17 09:05:56;;;;;;;9.73;3.00;;;11.10;91.90;;;;;;5074446;28;20444;-49
2021/04/17 09:08:22;;;;;;;4.30;2.77;;;11.00;92.10;;;;;;5074937;28;20471;-50
2021/04/17 09:10:49;;;;;;;5.63;2.77;;;11.40;92.10;;;;;;5074771;28;20434;-49
2021/04/17 09:13:31;;;;;;;5.00;3.10;;;11.10;91.90;;;;;;5074171;28;20858;-49
2021/04/17 09:15:59;;;;;;;4.87;2.70;;;11.00;91.80;;;;;;5074590;28;20445;-50
2021/04/17 09:18:43;;;;;;;5.83;2.90;;;11.20;91.80;;;;;;5074551;28;20437;-50
2021/04/17 09:21:32;;;;;;;5.80;2.70;;;11.30;91.60;;;;;;5074540;28;20448;-50
2021/04/17 09:23:59;;;;;;;6.67;2.53;;;11.60;91.80;;;;;;5073977;28;20450;-50
2021/04/17 09:26:38;;;;;;;6.43;3.30;;;11.30;92.00;;;;;;5074561;28;20434;-50
2021/04/17 09:29:06;;;;;;;7.70;2.93;;;11.50;91.70;;;;;;5075105;28;20533;-51
2021/04/17 09:31:36;;;;;;;10.13;3.50;;;11.90;91.60;;;;;;5073669;28;20970;-50
2021/04/17 09:34:06;;;;;;;5.40;2.70;;;11.70;91.20;;;;;;5073966;28;20839;-51
2021/04/17 09:36:33;;;;;;;11.37;3.93;;;11.60;90.90;;;;;;5074415;28;20434;-50
2021/04/17 09:38:59;;;;;;;10.60;3.70;;;11.80;91.10;;;;;;5074643;28;20925;-50
2021/04/17 09:41:45;;;;;;;6.00;3.20;;;11.60;91.00;;;;;;5074294;28;20441;-50
2021/04/17 09:44:12;;;;;;;6.90;2.83;;;11.80;91.40;;;;;;5074478;28;20484;-50
2021/04/17 09:46:39;;;;;;;5.50;2.57;;;11.70;91.00;;;;;;5073943;28;20468;-50
2021/04/17 09:49:06;;;;;;;6.97;3.73;;;11.70;91.00;;;;;;5074158;28;20435;-50
2021/04/17 09:51:32;;;;;;;6.93;3.53;;;11.80;91.10;;;;;;5074020;28;20438;-51
2021/04/17 09:54:01;;;;;;;6.47;3.20;;;11.80;90.80;;;;;;5073622;28;20486;-50
2021/04/17 09:56:30;;;;;;;9.30;3.63;;;12.10;90.60;;;;;;5073879;28;20815;-50
2021/04/17 09:58:57;;;;;;;8.33;3.20;;;11.80;90.80;;;;;;5073750;28;20439;-50
2021/04/17 10:01:24;;;;;;;5.90;3.73;;;11.90;91.00;;;;;;5073906;28;20524;-50
2021/04/17 10:03:53;;;;;;;6.47;3.40;;;11.70;91.10;;;;;;5073303;28;20467;-51
2021/04/17 10:06:25;;;;;;;6.73;3.80;;;11.80;91.00;;;;;;5072450;28;20461;-49
2021/04/17 10:08:52;;;;;;;8.13;3.20;;;11.80;91.30;;;;;;5073992;28;20434;-51
2021/04/17 10:11:24;;;;;;;8.50;3.90;;;11.70;91.30;;;;;;5074341;28;20483;-51
2021/04/17 10:13:50;;;;;;;6.50;3.93;;;11.90;91.30;;;;;;5072996;28;20480;-51
2021/04/17 10:16:25;;;;;;;8.40;3.30;;;11.70;91.00;;;;;;5073017;28;20942;-51
2021/04/17 10:18:52;;;;;;;8.80;3.70;;;11.30;91.00;;;;;;5072996;28;20521;-51
2021/04/17 10:21:25;;;;;;;7.87;3.30;;;11.70;91.20;;;;;;5073118;28;20425;-51
2021/04/17 10:24:17;;;;;;;8.70;4.10;;;12.00;91.70;;;;;;5072786;28;20534;-51
2021/04/17 10:26:55;;;;;;;11.37;4.97;;;12.20;91.40;;;;;;5072681;28;20477;-52
2021/04/17 10:29:32;;;;;;;10.27;4.20;;;12.30;91.20;;;;;;5073118;28;20492;-51
2021/04/17 10:32:00;;;;;;;6.27;3.90;;;12.30;91.10;;;;;;5073291;28;20434;-49
2021/04/17 10:34:26;;;;;;;8.03;3.90;;;12.30;90.70;;;;;;5070999;28;20469;-52
2021/04/17 10:37:03;;;;;;;8.17;3.80;;;12.40;90.90;;;;;;5072981;28;20438;-51
2021/04/17 10:39:30;;;;;;;9.27;4.83;;;12.70;90.90;;;;;;5073681;28;20437;-50
2021/04/17 10:42:01;;;;;;;8.43;4.33;;;13.20;90.50;;;;;;5072756;28;20949;-52
2021/04/17 10:44:28;;;;;;;11.80;4.20;;;12.70;90.10;;;;;;5072296;28;20457;-51
2021/04/17 10:46:55;;;;;;;14.33;5.37;;;12.50;89.50;;;;;;5072647;28;20432;-49
2021/04/17 10:49:30;;;;;;;5.77;3.40;;;12.60;89.30;;;;;;5072553;28;20877;-50
2021/04/17 10:54:27;;;;;;;8.00;4.40;;;12.80;90.10;;;;;;5066319;28;20506;-52
2021/04/17 10:57:00;;;;;;;6.80;4.57;;;13.10;90.10;;;;;;5070550;28;20501;-55
2021/04/17 10:59:26;;;;;;;12.80;4.70;;;13.00;89.50;;;;;;5070656;28;20443;-51
2021/04/17 11:01:53;;;;;;;8.87;4.60;;;13.20;89.10;;;;;;5070662;28;20515;-51
2021/04/17 11:04:19;;;;;;;6.20;3.90;;;13.40;89.10;;;;;;5069855;28;20461;-52
2021/04/17 11:06:48;;;;;;;10.53;4.87;;;13.50;88.50;;;;;;5070105;28;20889;-51
2021/04/17 11:09:17;;;;;;;9.73;4.50;;;13.50;88.30;;;;;;5070296;28;20448;-52
2021/04/17 11:11:54;;;;;;;13.33;4.30;;;13.50;88.40;;;;;;5069950;28;20460;-52
2021/04/17 11:14:23;;;;;;;7.63;4.43;;;13.40;88.60;;;;;;5068054;28;20955;-52
2021/04/17 11:16:51;;;;;;;7.30;4.47;;;13.40;88.80;;;;;;5069813;28;20463;-51
2021/04/17 11:19:25;;;;;;;8.93;4.20;;;13.40;88.60;;;;;;5070335;28;20426;-52
2021/04/17 11:22:09;;;;;;;8.23;4.37;;;13.50;88.90;;;;;;5069934;28;20832;-51
2021/04/17 11:24:35;;;;;;;7.20;3.90;;;13.30;88.40;;;;;;5069654;28;20800;-51
2021/04/17 11:27:03;;;;;;;10.07;4.70;;;13.70;89.10;;;;;;5069624;28;20468;-51
2021/04/17 11:29:29;;;;;;;8.23;4.40;;;13.70;88.80;;;;;;5069535;28;20435;-53
2021/04/17 11:31:55;;;;;;;6.70;4.50;;;14.00;88.30;;;;;;5069739;28;20439;-52
2021/04/17 11:34:22;;;;;;;10.20;4.80;;;14.00;87.80;;;;;;5068415;28;20542;-52
2021/04/17 11:36:48;;;;;;;10.63;5.20;;;14.30;87.70;;;;;;5068305;28;20442;-52
2021/04/17 11:39:15;;;;;;;10.40;5.33;;;14.20;86.50;;;;;;5069763;28;20429;-52
2021/04/17 11:41:42;;;;;;;12.23;5.10;;;13.90;85.90;;;;;;5069544;28;20916;-53
2021/04/17 11:44:09;;;;;;;7.70;4.57;;;14.20;86.60;;;;;;5069197;28;20763;-53
2021/04/17 11:46:37;;;;;;;9.93;4.67;;;14.10;87.00;;;;;;5069731;28;20444;-53
2021/04/17 11:49:03;;;;;;;7.30;4.97;;;14.20;87.70;;;;;;5069348;28;20455;-52
2021/04/17 11:51:30;;;;;;;8.50;5.13;;;14.00;87.00;;;;;;5069573;28;20425;-53
2021/04/17 11:53:56;;;;;;;9.93;5.20;;;14.20;87.20;;;;;;5068684;28;20511;-52
2021/04/17 11:56:23;;;;;;;9.03;5.73;;;13.90;86.70;;;;;;5067877;28;20559;-53
2021/04/17 11:58:49;;;;;;;9.03;6.07;;;14.40;86.60;;;;;;5049055;28;20899;-53
2021/04/17 12:01:18;;;;;;;8.30;6.57;;;14.00;86.00;;;;;;5049098;28;20432;-51
2021/04/17 12:03:45;;;;;;;12.43;6.47;;;14.40;86.80;;;;;;5059829;28;20456;-52
2021/04/17 12:06:11;;;;;;;9.10;6.40;;;14.40;85.70;;;;;;5068473;28;20437;-52
2021/04/17 12:08:37;;;;;;;7.30;5.63;;;14.50;86.00;;;;;;5068259;28;21001;-51
2021/04/17 12:11:05;;;;;;;11.13;5.90;;;14.40;85.80;;;;;;5066888;28;20562;-51
2021/04/17 12:13:32;;;;;;;9.00;6.13;;;14.60;85.90;;;;;;5068751;28;20477;-52
2021/04/17 12:15:58;;;;;;;9.13;6.23;;;14.60;85.80;;;;;;5069179;28;20488;-53
2021/04/17 12:18:26;;;;;;;9.30;5.63;;;14.30;84.80;;;;;;5069176;28;20483;-53
2021/04/17 12:20:52;;;;;;;9.37;6.20;;;14.30;84.50;;;;;;5068418;28;20434;-51
2021/04/17 12:23:18;;;;;;;16.87;6.13;;;14.80;84.70;;;;;;5066396;28;20504;-52
2021/04/17 12:25:45;;;;;;;13.07;7.50;;;14.90;84.60;;;;;;5068448;28;20431;-52
2021/04/17 12:28:11;;;;;;;7.83;5.90;;;14.80;84.30;;;;;;5067003;28;20791;-52
2021/04/17 12:30:38;;;;;;;10.77;6.00;;;15.10;84.40;;;;;;5066731;28;20503;-52
2021/04/17 12:33:05;;;;;;;10.43;5.60;;;15.00;83.50;;;;;;5068071;28;20961;-52
2021/04/17 12:35:33;;;;;;;9.33;6.20;;;15.00;83.70;;;;;;5068572;28;20524;-52
2021/04/17 12:37:59;;;;;;;10.73;6.30;;;15.10;83.30;;;;;;5068329;28;20875;-51
2021/04/17 12:40:25;;;;;;;15.33;6.23;;;14.90;83.20;;;;;;5068888;28;20478;-51
2021/04/17 12:42:52;;;;;;;13.63;7.17;;;14.70;83.10;;;;;;5068510;28;20457;-52
2021/04/17 12:45:18;;;;;;;12.33;6.50;;;14.80;83.00;;;;;;5068553;28;20494;-52
2021/04/17 12:47:44;;;;;;;9.73;6.13;;;14.90;83.10;;;;;;5068987;28;20436;-51
2021/04/17 12:50:12;;;;;;;9.47;5.80;;;15.00;83.80;;;;;;5068337;28;20430;-52
2021/04/17 12:52:41;;;;;;;10.07;4.70;;;14.90;83.90;;;;;;5067962;28;20516;-52
2021/04/17 12:55:08;;;;;;;7.07;4.90;;;14.60;84.00;;;;;;5067389;28;20768;-52
2021/04/17 12:57:35;;;;;;;16.53;5.67;;;14.80;84.40;;;;;;5064077;28;20465;-53
2021/04/17 13:00:01;;;;;;;6.30;5.00;;;14.70;83.90;;;;;;5048432;28;20438;-52